Time;durP1;ratioP1;P1;durP2;ratioP2;P2;SDS_P1;SDS_P2;PMS_P1;PMS_P2;Temp;Humidity;BMP_temperature;BMP_pressure;BME280_temperature;BME280_humidity;BME280_pressure;Samples;Min_cycle;Max_cycle;Signal;HPM_P1;HPM_P2
2022/09/11 00:05:01;;;;;;;0.80;0.50;;;;;;;;;;20997182;28;20213;-77
2022/09/11 00:15:03;;;;;;;0.50;0.40;;;;;;;;;;20973243;28;21128;-77
2022/09/11 00:25:05;;;;;;;1.23;0.60;;;;;;;;;;20990601;28;20290;-77
2022/09/11 00:35:06;;;;;;;0.70;0.57;;;22.90;99.90;;;;;;21006676;28;20201;-76
2022/09/11 00:45:19;;;;;;;1.30;0.60;;;17.50;99.90;;;;;;20968904;28;20279;-76
2022/09/11 00:55:22;;;;;;;0.97;0.73;;;;;;;;;;20955569;28;20220;-77
2022/09/11 01:05:27;;;;;;;0.63;0.53;;;17.40;99.90;;;;;;20988818;28;20217;-77
2022/09/11 01:15:33;;;;;;;1.50;0.70;;;;;;;;;;20997916;28;20229;-77
2022/09/11 01:25:54;;;;;;;2.30;0.70;;;;;;;;;;20995173;28;20220;-77
2022/09/11 01:36:08;;;;;;;1.23;0.57;;;17.50;99.90;;;;;;20998026;28;20217;-77
2022/09/11 01:46:12;;;;;;;1.30;0.80;;;17.60;99.90;;;;;;21023944;28;20221;-76
2022/09/11 01:56:26;;;;;;;1.83;0.73;;;;;;;;;;20967863;28;20209;-76
2022/09/11 02:06:40;;;;;;;3.07;0.80;;;17.50;99.90;;;;;;20968331;28;20262;-77
2022/09/11 02:16:46;;;;;;;1.73;0.80;;;;;;;;;;20992403;28;20197;-77
2022/09/11 02:26:51;;;;;;;1.40;0.80;;;;;;;;;;20981733;28;20251;-77
2022/09/11 02:37:20;;;;;;;1.47;0.90;;;17.50;99.90;;;;;;20981393;28;20201;-77
2022/09/11 02:47:44;;;;;;;2.23;0.80;;;;;;;;;;20976950;28;20857;-77
2022/09/11 02:57:57;;;;;;;0.93;0.70;;;17.50;99.90;;;;;;20966457;28;20212;-76
2022/09/11 03:08:03;;;;;;;0.90;0.60;;;;;;;;;;20974627;28;20274;-76
2022/09/11 03:18:05;;;;;;;1.37;0.77;;;;;;;;;;20979556;28;20688;-76
2022/09/11 03:28:07;;;;;;;1.90;0.90;;;17.40;99.90;;;;;;21006340;28;20241;-76
2022/09/11 03:38:10;;;;;;;1.40;0.90;;;17.40;99.90;;;;;;21041455;28;20201;-76
2022/09/11 03:48:13;;;;;;;2.77;1.17;;;;;;;;;;21040588;28;20259;-77
2022/09/11 03:58:17;;;;;;;1.10;0.90;;;17.30;99.90;;;;;;21046258;28;20277;-77
2022/09/11 04:08:19;;;;;;;1.27;0.90;;;;;;;;;;21036523;28;20216;-78
2022/09/11 04:18:21;;;;;;;1.40;0.90;;;;;;;;;;21029167;28;20270;-77
2022/09/11 04:28:23;;;;;;;1.47;1.00;;;;;;;;;;21017177;28;20279;-76
2022/09/11 04:38:25;;;;;;;1.67;1.10;;;;;;;;;;20986083;28;20209;-76
2022/09/11 04:48:28;;;;;;;1.07;0.80;;;;;;;;;;21046729;28;20232;-76
2022/09/11 04:58:30;;;;;;;1.37;1.00;;;;;;;;;;21047482;28;20282;-75
2022/09/11 05:08:32;;;;;;;0.97;0.87;;;;;;;;;;21026783;28;20278;-76
2022/09/11 05:18:36;;;;;;;2.00;1.40;;;;;;;;;;21017890;28;20209;-77
2022/09/11 05:28:38;;;;;;;1.63;0.83;;;;;;;;;;21045715;28;20224;-77
2022/09/11 05:38:40;;;;;;;1.37;0.87;;;17.30;99.90;;;;;;21044960;28;20205;-77
2022/09/11 05:48:43;;;;;;;1.20;0.93;;;;;;;;;;20994800;28;20216;-77
2022/09/11 05:58:46;;;;;;;1.60;1.10;;;;;;;;;;21077449;28;20232;-77
2022/09/11 06:08:49;;;;;;;1.93;1.03;;;17.60;99.90;;;;;;21023608;28;20212;-76
2022/09/11 06:18:51;;;;;;;1.43;1.00;;;17.60;99.90;;;;;;21086930;28;20205;-76
2022/09/11 06:28:56;;;;;;;1.73;0.90;;;;;;;;;;21061991;28;20285;-76
2022/09/11 06:38:58;;;;;;;1.60;1.03;;;;;;;;;;21027050;28;20201;-77
2022/09/11 06:49:03;;;;;;;1.93;0.90;;;;;;;;;;21001700;28;20209;-76
2022/09/11 06:59:06;;;;;;;1.27;1.00;;;;;;;;;;21053308;28;20212;-76
2022/09/11 07:09:10;;;;;;;2.47;1.13;;;18.30;99.90;;;;;;21077535;28;20212;-76
2022/09/11 07:19:19;;;;;;;1.70;1.13;;;;;;;;;;21077157;28;20595;-77
2022/09/11 07:29:21;;;;;;;1.70;1.20;;;;;;;;;;21055211;28;20205;-76
2022/09/11 07:39:23;;;;;;;2.70;1.70;;;;;;;;;;21052264;28;20552;-70
2022/09/11 07:49:34;;;;;;;2.03;1.40;;;;;;;;;;20984365;28;20255;-71
2022/09/11 07:59:36;;;;;;;4.00;1.50;;;;;;;;;;20997629;28;20635;-68
2022/09/11 08:09:39;;;;;;;1.57;1.10;;;;;;;;;;20987442;28;20531;-68
2022/09/11 08:19:41;;;;;;;1.93;1.30;;;;;;;;;;20980707;28;20304;-68
2022/09/11 08:29:43;;;;;;;1.87;1.20;;;;;;;;;;20988217;28;20207;-75
2022/09/11 08:39:45;;;;;;;1.17;0.90;;;19.40;99.90;;;;;;20955956;28;20274;-75
2022/09/11 08:50:06;;;;;;;2.37;1.30;;;;;;;;;;20978981;28;20359;-74
2022/09/11 09:00:30;;;;;;;2.00;1.20;;;19.20;99.90;;;;;;21014654;28;20222;-73
2022/09/11 09:10:49;;;;;;;1.43;1.00;;;;;;;;;;21000196;28;20254;-75
2022/09/11 09:21:05;;;;;;;2.13;1.03;;;19.20;99.90;;;;;;21002852;28;20222;-77
2022/09/11 09:31:13;;;;;;;2.33;1.03;;;19.30;99.90;;;;;;20993745;28;20277;-73
2022/09/11 09:41:27;;;;;;;1.40;0.83;;;;;;;;;;21022897;28;20230;-74
2022/09/11 09:51:29;;;;;;;3.20;0.87;;;;;;;;;;21047919;28;20211;-74
2022/09/11 10:01:43;;;;;;;2.17;0.87;;;;;;;;;;21065632;28;20297;-74
2022/09/11 10:11:45;;;;;;;2.67;1.40;;;;;;;;;;21048869;28;20265;-73
2022/09/11 10:21:47;;;;;;;2.17;1.10;;;;;;;;;;21062626;28;20255;-74
2022/09/11 10:31:50;;;;;;;1.37;1.10;;;;;;;;;;21066331;28;20204;-73
2022/09/11 10:41:56;;;;;;;2.37;1.03;;;21.90;99.90;;;;;;21079888;28;20634;-73
2022/09/11 10:52:06;;;;;;;1.70;1.20;;;22.10;99.90;;;;;;21078214;28;20774;-73
2022/09/11 11:02:15;;;;;;;1.37;0.87;;;;;;;;;;21079569;28;20235;-73
2022/09/11 11:12:20;;;;;;;1.77;1.10;;;;;;;;;;21079309;28;20254;-73
2022/09/11 11:22:28;;;;;;;2.10;1.23;;;;;;;;;;21061017;28;20275;-73
2022/09/11 11:32:46;;;;;;;1.80;0.90;;;21.60;99.90;;;;;;21059286;28;20254;-74
2022/09/11 11:42:54;;;;;;;1.80;0.93;;;;;;;;;;21076386;28;20272;-74
2022/09/11 11:53:19;;;;;;;2.10;0.95;;;23.10;99.90;;;;;;21071373;28;20896;-75
2022/09/11 12:03:24;;;;;;;1.30;0.90;;;;;;;;;;21073773;28;20231;-75
2022/09/11 12:13:31;;;;;;;1.48;0.82;;;;;;;;;;21055613;28;20264;-75
2022/09/11 12:23:53;;;;;;;0.93;0.70;;;;;;;;;;21073616;28;20848;-76
2022/09/11 12:33:55;;;;;;;1.50;0.88;;;;;;;;;;21061776;28;20219;-75
2022/09/11 12:43:58;;;;;;;1.23;0.80;;;;;;;;;;21052548;28;20594;-75
2022/09/11 12:54:02;;;;;;;1.77;0.90;;;;;;;;;;21067176;28;20292;-75
2022/09/11 13:04:09;;;;;;;2.75;0.90;;;22.30;99.90;;;;;;21069822;28;20220;-73
2022/09/11 13:14:29;;;;;;;2.10;1.00;;;;;;;;;;21069306;28;20194;-73
2022/09/11 13:24:33;;;;;;;1.30;0.82;;;22.00;99.90;;;;;;21050623;28;20309;-74
2022/09/11 13:34:35;;;;;;;0.98;0.70;;;;;;;;;;21068254;28;20206;-73
2022/09/11 13:44:43;;;;;;;2.08;0.70;;;21.80;99.90;;;;;;21049682;28;20767;-74
2022/09/11 13:54:54;;;;;;;1.90;0.93;;;21.80;99.90;;;;;;21043018;28;20217;-70
2022/09/11 14:05:03;;;;;;;1.88;1.10;;;;;;;;;;21002648;28;20214;-70
2022/09/11 14:15:19;;;;;;;0.98;0.80;;;21.70;99.90;;;;;;21001428;28;20215;-70
2022/09/11 14:25:23;;;;;;;1.90;1.03;;;;;;;;;;21035531;28;20296;-70
2022/09/11 14:35:25;;;;;;;3.42;1.20;;;;;;;;;;21058040;28;20226;-70
2022/09/11 14:45:27;;;;;;;1.77;1.10;;;;;;;;;;21046750;28;20268;-70
2022/09/11 14:55:29;;;;;;;2.30;1.10;;;;;;;;;;21021510;28;20226;-70
2022/09/11 15:05:32;;;;;;;1.50;1.00;;;;;;;;;;21032544;28;20639;-70
2022/09/11 15:15:34;;;;;;;2.70;1.17;;;;;;;;;;21029395;28;20235;-73
2022/09/11 15:25:36;;;;;;;1.20;0.80;;;;;;;;;;21035307;28;20692;-70
2022/09/11 15:35:38;;;;;;;1.37;0.87;;;;;;;;;;21021642;28;20284;-69
2022/09/11 15:45:41;;;;;;;1.10;0.87;;;;;;;;;;20989080;28;20280;-70
2022/09/11 15:55:43;;;;;;;1.20;0.82;;;;;;;;;;20989699;28;20228;-70
2022/09/11 16:05:45;;;;;;;1.50;1.00;;;;;;;;;;20987422;28;20227;-70
2022/09/11 16:15:48;;;;;;;2.43;1.20;;;;;;;;;;20987389;28;20755;-70
2022/09/11 16:25:50;;;;;;;1.40;0.90;;;;;;;;;;20988201;28;20224;-71
2022/09/11 16:36:06;;;;;;;1.00;0.80;;;21.50;99.90;;;;;;20983756;28;20626;-69
2022/09/11 16:46:08;;;;;;;2.27;1.27;;;;;;;;;;20980379;28;20309;-69
2022/09/11 16:56:15;;;;;;;1.50;1.10;;;;;;;;;;20952970;28;20227;-70
2022/09/11 17:06:20;;;;;;;1.77;0.80;;;;;;;;;;20964375;28;20223;-70
2022/09/11 17:16:24;;;;;;;2.67;1.40;;;;;;;;;;20960566;28;20214;-70
2022/09/11 17:26:26;;;;;;;1.63;1.00;;;;;;;;;;20979341;28;20236;-72
2022/09/11 17:36:28;;;;;;;1.27;0.93;;;;;;;;;;20959941;28;20579;-70
2022/09/11 17:46:29;;;;;;;1.60;1.10;;;;;;;;;;20965577;28;20699;-69
2022/09/11 17:56:31;;;;;;;1.83;1.27;;;;;;;;;;20972214;28;20722;-71
2022/09/11 18:06:35;;;;;;;1.63;1.10;;;20.80;99.90;;;;;;20978715;28;20226;-72
2022/09/11 18:16:37;;;;;;;2.00;1.40;;;;;;;;;;20974103;28;20204;-71
2022/09/11 18:26:40;;;;;;;2.53;1.30;;;;;;;;;;20973506;28;20250;-71
2022/09/11 18:36:42;;;;;;;2.27;1.30;;;20.40;99.90;;;;;;20969019;28;20278;-72
2022/09/11 18:46:46;;;;;;;2.40;1.40;;;;;;;;;;20964060;28;20359;-71
2022/09/11 18:56:49;;;;;;;2.47;1.70;;;20.30;99.90;;;;;;20940309;28;20242;-69
2022/09/11 19:06:51;;;;;;;2.10;1.37;;;;;;;;;;20987084;28;20217;-69
2022/09/11 19:16:54;;;;;;;2.37;1.50;;;;;;;;;;20985665;28;20251;-69
2022/09/11 19:26:57;;;;;;;2.30;1.60;;;;;;;;;;20982472;28;20217;-69
2022/09/11 19:36:58;;;;;;;2.23;1.47;;;;;;;;;;20999528;28;20474;-70
2022/09/11 19:47:01;;;;;;;1.80;1.00;;;;;;;;;;20913282;28;20594;-69
2022/09/11 19:57:05;;;;;;;2.00;1.30;;;;;;;;;;20963313;28;20279;-69
2022/09/11 20:07:07;;;;;;;1.40;1.00;;;;;;;;;;20973624;28;20263;-70
2022/09/11 20:17:09;;;;;;;1.97;1.17;;;;;;;;;;21014958;28;20312;-71
2022/09/11 20:27:11;;;;;;;1.70;1.20;;;;;;;;;;20977865;28;20298;-70
2022/09/11 20:37:13;;;;;;;2.67;1.30;;;;;;;;;;20974468;28;20282;-70
2022/09/11 20:47:15;;;;;;;1.80;1.20;;;;;;;;;;20975746;28;20228;-69
2022/09/11 20:57:17;;;;;;;1.87;1.10;;;;;;;;;;20982578;28;20224;-69
2022/09/11 21:07:19;;;;;;;3.47;1.27;;;;;;;;;;20972485;28;20296;-69
2022/09/11 21:17:21;;;;;;;2.03;1.33;;;;;;;;;;21002633;28;20220;-70
2022/09/11 21:27:23;;;;;;;3.27;1.80;;;;;;;;;;20981188;28;20597;-70
2022/09/11 21:37:25;;;;;;;2.87;1.40;;;;;;;;;;20961414;28;20350;-70
2022/09/11 21:47:27;;;;;;;2.10;1.30;;;;;;;;;;20982878;28;20898;-70
2022/09/11 21:57:28;;;;;;;2.80;1.63;;;;;;;;;;20982859;28;20590;-70
2022/09/11 22:07:30;;;;;;;2.03;1.30;;;;;;;;;;20964468;28;20300;-70
2022/09/11 22:17:32;;;;;;;3.27;1.67;;;;;;;;;;20969931;28;20275;-70
2022/09/11 22:27:35;;;;;;;1.90;1.33;;;;;;;;;;21030170;28;20227;-70
2022/09/11 22:37:37;;;;;;;1.73;1.30;;;;;;;;;;21076540;28;20271;-70
2022/09/11 22:47:38;;;;;;;1.97;1.33;;;;;;;;;;21080023;28;20223;-70
2022/09/11 22:57:40;;;;;;;2.13;1.40;;;;;;;;;;21080275;28;20240;-69
2022/09/11 23:07:42;;;;;;;2.57;1.77;;;;;;;;;;21079237;28;20218;-70
2022/09/11 23:17:44;;;;;;;3.17;1.40;;;;;;;;;;21077217;28;20219;-71
2022/09/11 23:27:46;;;;;;;2.60;1.70;;;;;;;;;;21076065;28;20675;-70
2022/09/11 23:37:48;;;;;;;1.90;1.40;;;;;;;;;;21076087;28;20262;-70
2022/09/11 23:47:49;;;;;;;3.27;1.70;;;;;;;;;;21073657;28;20225;-70
2022/09/11 23:57:54;;;;;;;1.90;1.30;;;;;;;;;;21072643;28;20291;-70
